Impacts METAR Board
IDs:

KSTL - St Louis/Lambert Int, MO, US

Updated at: 1500 UTC 03 Dec 2021
Potential Impact None Slight Moderate High
Time 03/03Z 03/04Z 03/05Z 03/06Z 03/07Z 03/08Z 03/09Z 03/10Z 03/11Z 03/12Z 03/13Z 03/14Z 03/15Z
Temp57 51 50 51 47 47 50 50 47 45 46 45 54
Dewpt41 40 40 40 38 38 40 40 38 38 39 40 42
Altim30.02 30.02 30.01 30.01 29.99 29.97 29.97 29.96 29.95 29.94 29.95 29.95 29.95
VIS10 10 10 10 10 10 10 10 10 10 10 10 10
CIG-- -- -- -- -- -- -- -- -- -- -- -- --
CoverFEWFEWSCTSCTFEWSCTFEWFEWFEWFEWFEWFEWFEW
FltCatVFRVFRVFRVFRVFRVFRVFRVFRVFRVFRVFRVFRVFR
WX--------------------------
WDir50110120801201201109011090701000
WSpd8 6 6 4 5 6 4 4 5 5 5 4 0
WGst-- -- -- -- -- -- -- -- -- -- -- -- --
Raw hourly METARs
KSTL 030251Z 05008KT 10SM FEW250 14/05 A3002 RMK AO2 SLP163 T01390050 51003
KSTL 030351Z 11006KT 10SM FEW250 11/04 A3002 RMK AO2 SLP163 T01060044
KSTL 030451Z 12006KT 10SM SCT250 10/04 A3001 RMK AO2 SLP160 T01000044
KSTL 030551Z 08004KT 10SM SCT250 11/04 A3001 RMK AO2 SLP158 T01060044 10161 20094 402220094 56004
KSTL 030651Z 12005KT 10SM FEW250 08/03 A2999 RMK AO2 SLP151 T00830033
KSTL 030751Z 12006KT 10SM SCT250 08/03 A2997 RMK AO2 SLP144 T00830033
KSTL 030851Z 11004KT 10SM FEW250 10/04 A2997 RMK AO2 SLP144 T01000044 55014
KSTL 030951Z 09004KT 10SM FEW250 10/04 A2996 RMK AO2 SLP142 T01000044
KSTL 031051Z 11005KT 10SM FEW250 08/03 A2995 RMK AO2 SLP139 T00830033
KSTL 031151Z 09005KT 10SM FEW250 07/03 A2994 RMK AO2 SLP139 T00720033 10111 20067 56009
KSTL 031251Z 07005KT 10SM FEW250 08/04 A2995 RMK AO2 SLP143 T00780039
KSTL 031351Z 10004KT 10SM FEW250 07/04 A2995 RMK AO2 SLP143 T00720044
KSTL 031451Z 00000KT 10SM FEW250 12/06 A2995 RMK AO2 SLP139 T01220056 50002



Page loaded:  15:50 UTC  |   07:50 AM Pacific  |   08:50 AM Mountain  |   09:50 AM Central  |   10:50 AM Eastern

 

ADVISORIES

FORECASTS

FORECASTS

OBSERVATIONS

USER TOOLS

ABOUT US